sensor_id;sensor_type;location;lat;lon;timestamp;P1;durP1;ratioP1;P2;durP2;ratioP2
60060;SDS011;45933;51.336;12.612;2023-04-01T00:01:01;2.13;;;0.53;;
60060;SDS011;45933;51.336;12.612;2023-04-01T00:03:27;3.80;;;0.70;;
60060;SDS011;45933;51.336;12.612;2023-04-01T00:05:53;2.10;;;0.70;;
60060;SDS011;45933;51.336;12.612;2023-04-01T00:08:19;2.10;;;0.70;;
60060;SDS011;45933;51.336;12.612;2023-04-01T00:10:45;4.03;;;1.33;;
60060;SDS011;45933;51.336;12.612;2023-04-01T00:13:10;2.27;;;0.80;;
60060;SDS011;45933;51.336;12.612;2023-04-01T00:15:36;1.87;;;0.50;;
60060;SDS011;45933;51.336;12.612;2023-04-01T00:18:01;1.83;;;0.60;;
60060;SDS011;45933;51.336;12.612;2023-04-01T00:20:27;2.13;;;0.60;;
60060;SDS011;45933;51.336;12.612;2023-04-01T00:22:53;3.30;;;0.90;;
60060;SDS011;45933;51.336;12.612;2023-04-01T00:25:18;2.23;;;0.67;;
60060;SDS011;45933;51.336;12.612;2023-04-01T00:27:44;2.87;;;0.60;;
60060;SDS011;45933;51.336;12.612;2023-04-01T00:30:09;4.70;;;0.80;;
60060;SDS011;45933;51.336;12.612;2023-04-01T00:32:35;1.27;;;0.73;;
60060;SDS011;45933;51.336;12.612;2023-04-01T00:35:01;3.10;;;0.70;;
60060;SDS011;45933;51.336;12.612;2023-04-01T00:37:27;2.37;;;0.83;;
60060;SDS011;45933;51.336;12.612;2023-04-01T00:39:52;3.33;;;0.80;;
60060;SDS011;45933;51.336;12.612;2023-04-01T00:42:18;2.90;;;0.90;;
60060;SDS011;45933;51.336;12.612;2023-04-01T00:44:45;5.20;;;1.00;;
60060;SDS011;45933;51.336;12.612;2023-04-01T00:47:15;4.10;;;1.13;;
60060;SDS011;45933;51.336;12.612;2023-04-01T00:49:40;2.90;;;0.90;;
60060;SDS011;45933;51.336;12.612;2023-04-01T00:52:09;1.77;;;0.80;;
60060;SDS011;45933;51.336;12.612;2023-04-01T00:54:37;2.17;;;0.60;;
60060;SDS011;45933;51.336;12.612;2023-04-01T00:57:12;2.57;;;0.77;;
60060;SDS011;45933;51.336;12.612;2023-04-01T00:59:45;1.77;;;0.50;;
60060;SDS011;45933;51.336;12.612;2023-04-01T01:02:13;3.77;;;1.10;;
60060;SDS011;45933;51.336;12.612;2023-04-01T01:04:39;1.67;;;0.70;;
60060;SDS011;45933;51.336;12.612;2023-04-01T01:07:20;2.03;;;0.53;;
60060;SDS011;45933;51.336;12.612;2023-04-01T01:10:10;1.60;;;0.67;;
60060;SDS011;45933;51.336;12.612;2023-04-01T01:12:49;3.67;;;0.90;;
60060;SDS011;45933;51.336;12.612;2023-04-01T01:32:04;2.17;;;0.90;;
60060;SDS011;45933;51.336;12.612;2023-04-01T01:37:44;2.20;;;0.80;;
60060;SDS011;45933;51.336;12.612;2023-04-01T01:40:11;2.10;;;0.80;;
60060;SDS011;45933;51.336;12.612;2023-04-01T01:42:41;4.33;;;0.80;;
60060;SDS011;45933;51.336;12.612;2023-04-01T01:45:11;2.00;;;0.63;;
60060;SDS011;45933;51.336;12.612;2023-04-01T01:47:39;4.03;;;0.83;;
60060;SDS011;45933;51.336;12.612;2023-04-01T01:50:06;2.37;;;0.90;;
60060;SDS011;45933;51.336;12.612;2023-04-01T01:52:33;5.67;;;1.10;;
60060;SDS011;45933;51.336;12.612;2023-04-01T01:54:58;2.90;;;0.70;;
60060;SDS011;45933;51.336;12.612;2023-04-01T01:57:28;2.17;;;0.70;;
60060;SDS011;45933;51.336;12.612;2023-04-01T01:59:58;2.67;;;0.73;;
60060;SDS011;45933;51.336;12.612;2023-04-01T02:02:29;1.50;;;0.60;;
60060;SDS011;45933;51.336;12.612;2023-04-01T02:04:57;1.97;;;0.63;;
60060;SDS011;45933;51.336;12.612;2023-04-01T02:07:27;2.60;;;0.70;;
60060;SDS011;45933;51.336;12.612;2023-04-01T02:09:58;4.97;;;1.10;;
60060;SDS011;45933;51.336;12.612;2023-04-01T02:12:23;2.03;;;0.67;;
60060;SDS011;45933;51.336;12.612;2023-04-01T02:17:30;2.60;;;0.87;;
60060;SDS011;45933;51.336;12.612;2023-04-01T02:22:54;1.90;;;0.60;;
60060;SDS011;45933;51.336;12.612;2023-04-01T02:25:39;2.97;;;0.77;;
60060;SDS011;45933;51.336;12.612;2023-04-01T02:28:06;2.67;;;0.80;;
60060;SDS011;45933;51.336;12.612;2023-04-01T02:30:34;4.40;;;0.87;;
60060;SDS011;45933;51.336;12.612;2023-04-01T02:33:02;2.67;;;0.67;;
60060;SDS011;45933;51.336;12.612;2023-04-01T02:35:29;3.50;;;0.70;;
60060;SDS011;45933;51.336;12.612;2023-04-01T02:37:55;2.50;;;0.60;;
60060;SDS011;45933;51.336;12.612;2023-04-01T02:40:21;1.53;;;0.80;;
60060;SDS011;45933;51.336;12.612;2023-04-01T02:42:46;2.17;;;0.80;;
60060;SDS011;45933;51.336;12.612;2023-04-01T02:45:12;2.43;;;0.60;;
60060;SDS011;45933;51.336;12.612;2023-04-01T02:47:39;3.30;;;0.80;;
60060;SDS011;45933;51.336;12.612;2023-04-01T02:50:05;3.73;;;0.70;;
60060;SDS011;45933;51.336;12.612;2023-04-01T02:52:31;5.07;;;1.27;;
60060;SDS011;45933;51.336;12.612;2023-04-01T02:54:56;3.30;;;0.87;;
60060;SDS011;45933;51.336;12.612;2023-04-01T02:57:22;3.27;;;0.90;;
60060;SDS011;45933;51.336;12.612;2023-04-01T02:59:48;2.63;;;0.90;;
60060;SDS011;45933;51.336;12.612;2023-04-01T03:02:13;6.00;;;1.20;;
60060;SDS011;45933;51.336;12.612;2023-04-01T03:04:40;3.93;;;0.77;;
60060;SDS011;45933;51.336;12.612;2023-04-01T03:07:06;2.13;;;0.77;;
60060;SDS011;45933;51.336;12.612;2023-04-01T03:09:31;5.23;;;0.90;;
60060;SDS011;45933;51.336;12.612;2023-04-01T03:11:57;3.00;;;0.83;;
60060;SDS011;45933;51.336;12.612;2023-04-01T03:14:22;4.43;;;0.60;;
60060;SDS011;45933;51.336;12.612;2023-04-01T03:16:47;1.97;;;0.60;;
60060;SDS011;45933;51.336;12.612;2023-04-01T03:19:13;2.50;;;0.77;;
60060;SDS011;45933;51.336;12.612;2023-04-01T03:21:38;2.40;;;0.83;;
60060;SDS011;45933;51.336;12.612;2023-04-01T03:24:03;2.37;;;0.77;;
60060;SDS011;45933;51.336;12.612;2023-04-01T03:26:31;2.67;;;0.60;;
60060;SDS011;45933;51.336;12.612;2023-04-01T03:28:56;3.23;;;1.07;;
60060;SDS011;45933;51.336;12.612;2023-04-01T03:31:21;4.10;;;0.80;;
60060;SDS011;45933;51.336;12.612;2023-04-01T03:33:47;3.93;;;1.03;;
60060;SDS011;45933;51.336;12.612;2023-04-01T03:36:12;5.20;;;0.90;;
60060;SDS011;45933;51.336;12.612;2023-04-01T03:38:38;4.90;;;1.07;;
60060;SDS011;45933;51.336;12.612;2023-04-01T03:41:04;3.93;;;1.30;;
60060;SDS011;45933;51.336;12.612;2023-04-01T03:43:30;4.83;;;1.03;;
60060;SDS011;45933;51.336;12.612;2023-04-01T03:45:55;2.97;;;0.70;;
60060;SDS011;45933;51.336;12.612;2023-04-01T03:48:22;3.00;;;0.83;;
60060;SDS011;45933;51.336;12.612;2023-04-01T03:50:48;4.27;;;0.83;;
60060;SDS011;45933;51.336;12.612;2023-04-01T03:53:13;6.83;;;1.07;;
60060;SDS011;45933;51.336;12.612;2023-04-01T03:55:39;2.50;;;0.90;;
60060;SDS011;45933;51.336;12.612;2023-04-01T03:58:05;2.00;;;0.80;;
60060;SDS011;45933;51.336;12.612;2023-04-01T04:00:31;3.37;;;1.00;;
60060;SDS011;45933;51.336;12.612;2023-04-01T04:02:57;4.63;;;0.80;;
60060;SDS011;45933;51.336;12.612;2023-04-01T04:05:23;5.40;;;0.80;;
60060;SDS011;45933;51.336;12.612;2023-04-01T04:07:49;3.50;;;0.93;;
60060;SDS011;45933;51.336;12.612;2023-04-01T04:10:15;3.00;;;0.70;;
60060;SDS011;45933;51.336;12.612;2023-04-01T04:12:40;3.33;;;0.83;;
60060;SDS011;45933;51.336;12.612;2023-04-01T04:15:06;4.40;;;0.77;;
60060;SDS011;45933;51.336;12.612;2023-04-01T04:17:32;3.03;;;0.90;;
60060;SDS011;45933;51.336;12.612;2023-04-01T04:19:57;2.30;;;0.90;;
60060;SDS011;45933;51.336;12.612;2023-04-01T04:22:22;1.77;;;0.70;;
60060;SDS011;45933;51.336;12.612;2023-04-01T04:24:48;5.47;;;1.20;;
60060;SDS011;45933;51.336;12.612;2023-04-01T04:27:13;1.70;;;0.90;;
60060;SDS011;45933;51.336;12.612;2023-04-01T04:29:38;3.93;;;1.13;;
60060;SDS011;45933;51.336;12.612;2023-04-01T04:32:04;2.10;;;0.90;;
60060;SDS011;45933;51.336;12.612;2023-04-01T04:34:30;3.03;;;0.87;;
60060;SDS011;45933;51.336;12.612;2023-04-01T04:36:56;3.13;;;0.80;;
60060;SDS011;45933;51.336;12.612;2023-04-01T04:39:21;4.23;;;1.30;;
60060;SDS011;45933;51.336;12.612;2023-04-01T04:41:46;2.73;;;0.70;;
60060;SDS011;45933;51.336;12.612;2023-04-01T04:44:12;4.53;;;1.00;;
60060;SDS011;45933;51.336;12.612;2023-04-01T04:46:37;2.03;;;0.80;;
60060;SDS011;45933;51.336;12.612;2023-04-01T04:49:04;3.53;;;1.00;;
60060;SDS011;45933;51.336;12.612;2023-04-01T04:51:30;4.87;;;0.83;;
60060;SDS011;45933;51.336;12.612;2023-04-01T04:53:55;4.23;;;1.07;;
60060;SDS011;45933;51.336;12.612;2023-04-01T04:56:21;2.33;;;0.80;;
60060;SDS011;45933;51.336;12.612;2023-04-01T04:58:48;1.63;;;0.70;;
60060;SDS011;45933;51.336;12.612;2023-04-01T05:01:15;2.20;;;0.90;;
60060;SDS011;45933;51.336;12.612;2023-04-01T05:03:41;2.70;;;0.80;;
60060;SDS011;45933;51.336;12.612;2023-04-01T05:06:07;4.20;;;1.17;;
60060;SDS011;45933;51.336;12.612;2023-04-01T05:08:33;4.23;;;0.93;;
60060;SDS011;45933;51.336;12.612;2023-04-01T05:10:59;2.90;;;0.80;;
60060;SDS011;45933;51.336;12.612;2023-04-01T05:13:26;4.07;;;1.00;;
60060;SDS011;45933;51.336;12.612;2023-04-01T05:15:51;3.80;;;0.77;;
60060;SDS011;45933;51.336;12.612;2023-04-01T05:18:16;3.30;;;0.87;;
60060;SDS011;45933;51.336;12.612;2023-04-01T05:20:48;4.47;;;1.17;;
60060;SDS011;45933;51.336;12.612;2023-04-01T05:23:15;2.27;;;0.90;;
60060;SDS011;45933;51.336;12.612;2023-04-01T05:25:40;6.13;;;0.90;;
60060;SDS011;45933;51.336;12.612;2023-04-01T05:28:05;2.23;;;0.90;;
60060;SDS011;45933;51.336;12.612;2023-04-01T05:30:31;4.83;;;1.23;;
60060;SDS011;45933;51.336;12.612;2023-04-01T05:32:56;2.23;;;1.27;;
60060;SDS011;45933;51.336;12.612;2023-04-01T05:35:21;2.80;;;1.10;;
60060;SDS011;45933;51.336;12.612;2023-04-01T05:37:47;3.27;;;1.00;;
60060;SDS011;45933;51.336;12.612;2023-04-01T05:40:13;2.60;;;0.90;;
60060;SDS011;45933;51.336;12.612;2023-04-01T05:42:38;3.33;;;0.87;;
60060;SDS011;45933;51.336;12.612;2023-04-01T05:45:03;3.37;;;0.73;;
60060;SDS011;45933;51.336;12.612;2023-04-01T05:47:30;2.60;;;1.00;;
60060;SDS011;45933;51.336;12.612;2023-04-01T05:49:55;3.63;;;0.80;;
60060;SDS011;45933;51.336;12.612;2023-04-01T05:52:20;3.93;;;1.00;;
60060;SDS011;45933;51.336;12.612;2023-04-01T05:54:46;2.20;;;0.77;;
60060;SDS011;45933;51.336;12.612;2023-04-01T05:57:11;3.63;;;1.00;;
60060;SDS011;45933;51.336;12.612;2023-04-01T05:59:36;2.83;;;1.13;;
60060;SDS011;45933;51.336;12.612;2023-04-01T06:02:02;4.50;;;1.00;;
60060;SDS011;45933;51.336;12.612;2023-04-01T06:04:28;3.73;;;1.10;;
60060;SDS011;45933;51.336;12.612;2023-04-01T06:06:59;5.23;;;1.17;;
60060;SDS011;45933;51.336;12.612;2023-04-01T06:09:26;1.70;;;0.93;;
60060;SDS011;45933;51.336;12.612;2023-04-01T06:14:49;1.77;;;0.70;;
60060;SDS011;45933;51.336;12.612;2023-04-01T06:17:43;2.47;;;0.90;;
60060;SDS011;45933;51.336;12.612;2023-04-01T06:20:22;3.73;;;0.90;;
60060;SDS011;45933;51.336;12.612;2023-04-01T06:31:54;1.77;;;0.80;;
60060;SDS011;45933;51.336;12.612;2023-04-01T06:37:22;5.37;;;1.20;;
60060;SDS011;45933;51.336;12.612;2023-04-01T06:40:02;3.67;;;0.90;;
60060;SDS011;45933;51.336;12.612;2023-04-01T06:45:28;2.87;;;0.90;;
60060;SDS011;45933;51.336;12.612;2023-04-01T06:48:22;2.53;;;1.20;;
60060;SDS011;45933;51.336;12.612;2023-04-01T06:51:09;5.17;;;1.20;;
60060;SDS011;45933;51.336;12.612;2023-04-01T06:53:52;2.93;;;1.10;;
60060;SDS011;45933;51.336;12.612;2023-04-01T06:56:26;4.53;;;1.20;;
60060;SDS011;45933;51.336;12.612;2023-04-01T06:58:58;3.03;;;1.07;;
60060;SDS011;45933;51.336;12.612;2023-04-01T07:01:34;2.43;;;1.10;;
60060;SDS011;45933;51.336;12.612;2023-04-01T07:04:06;2.97;;;1.10;;
60060;SDS011;45933;51.336;12.612;2023-04-01T07:06:39;1.40;;;0.90;;
60060;SDS011;45933;51.336;12.612;2023-04-01T07:09:12;2.73;;;0.90;;
60060;SDS011;45933;51.336;12.612;2023-04-01T07:11:43;3.77;;;1.03;;
60060;SDS011;45933;51.336;12.612;2023-04-01T07:14:41;3.57;;;1.40;;
60060;SDS011;45933;51.336;12.612;2023-04-01T07:19:50;3.17;;;0.90;;
60060;SDS011;45933;51.336;12.612;2023-04-01T07:22:32;1.67;;;0.90;;
60060;SDS011;45933;51.336;12.612;2023-04-01T07:25:07;2.57;;;0.70;;
60060;SDS011;45933;51.336;12.612;2023-04-01T07:27:38;2.70;;;0.87;;
60060;SDS011;45933;51.336;12.612;2023-04-01T07:30:04;1.60;;;0.73;;
60060;SDS011;45933;51.336;12.612;2023-04-01T07:41:47;9.73;;;1.20;;
60060;SDS011;45933;51.336;12.612;2023-04-01T07:44:24;3.43;;;0.80;;
60060;SDS011;45933;51.336;12.612;2023-04-01T07:49:42;2.77;;;0.80;;
60060;SDS011;45933;51.336;12.612;2023-04-01T07:52:39;1.83;;;1.00;;
60060;SDS011;45933;51.336;12.612;2023-04-01T07:55:15;2.53;;;0.87;;
60060;SDS011;45933;51.336;12.612;2023-04-01T07:57:59;3.23;;;1.20;;
60060;SDS011;45933;51.336;12.612;2023-04-01T08:05:55;5.17;;;2.00;;
60060;SDS011;45933;51.336;12.612;2023-04-01T08:14:08;2.73;;;0.80;;
60060;SDS011;45933;51.336;12.612;2023-04-01T08:16:52;3.70;;;1.10;;
60060;SDS011;45933;51.336;12.612;2023-04-01T08:21:57;2.23;;;0.73;;
60060;SDS011;45933;51.336;12.612;2023-04-01T08:24:33;4.63;;;0.90;;
60060;SDS011;45933;51.336;12.612;2023-04-01T08:27:06;2.87;;;0.80;;
60060;SDS011;45933;51.336;12.612;2023-04-01T08:30:00;1.67;;;0.75;;
60060;SDS011;45933;51.336;12.612;2023-04-01T08:35:31;6.65;;;4.00;;
60060;SDS011;45933;51.336;12.612;2023-04-01T08:38:05;4.87;;;1.87;;
60060;SDS011;45933;51.336;12.612;2023-04-01T08:40:55;3.07;;;1.07;;
60060;SDS011;45933;51.336;12.612;2023-04-01T08:43:39;2.40;;;1.05;;
60060;SDS011;45933;51.336;12.612;2023-04-01T09:01:13;3.30;;;1.10;;
60060;SDS011;45933;51.336;12.612;2023-04-01T09:06:34;2.10;;;1.20;;
60060;SDS011;45933;51.336;12.612;2023-04-01T09:12:10;3.60;;;1.65;;
60060;SDS011;45933;51.336;12.612;2023-04-01T09:14:54;2.78;;;1.25;;
60060;SDS011;45933;51.336;12.612;2023-04-01T09:17:41;3.00;;;1.17;;
60060;SDS011;45933;51.336;12.612;2023-04-01T09:23:17;2.40;;;0.70;;
60060;SDS011;45933;51.336;12.612;2023-04-01T09:34:26;3.25;;;0.60;;
60060;SDS011;45933;51.336;12.612;2023-04-01T09:37:19;5.20;;;0.90;;
60060;SDS011;45933;51.336;12.612;2023-04-01T09:40:01;1.50;;;0.68;;
60060;SDS011;45933;51.336;12.612;2023-04-01T09:54:19;3.42;;;1.27;;
60060;SDS011;45933;51.336;12.612;2023-04-01T09:57:13;3.10;;;1.60;;
60060;SDS011;45933;51.336;12.612;2023-04-01T10:00:16;2.17;;;1.25;;
60060;SDS011;45933;51.336;12.612;2023-04-01T10:06:06;3.78;;;2.20;;
60060;SDS011;45933;51.336;12.612;2023-04-01T10:20:17;1.45;;;0.90;;
60060;SDS011;45933;51.336;12.612;2023-04-01T10:26:08;1.88;;;0.90;;
60060;SDS011;45933;51.336;12.612;2023-04-01T10:29:18;2.03;;;0.60;;
60060;SDS011;45933;51.336;12.612;2023-04-01T10:32:12;3.08;;;0.65;;
60060;SDS011;45933;51.336;12.612;2023-04-01T10:35:05;3.03;;;0.93;;
60060;SDS011;45933;51.336;12.612;2023-04-01T10:40:57;1.40;;;0.40;;
60060;SDS011;45933;51.336;12.612;2023-04-01T10:43:57;2.60;;;0.60;;
60060;SDS011;45933;51.336;12.612;2023-04-01T10:55:34;0.77;;;0.60;;
60060;SDS011;45933;51.336;12.612;2023-04-01T11:07:08;16.05;;;1.92;;
60060;SDS011;45933;51.336;12.612;2023-04-01T11:11:12;3.95;;;1.02;;
60060;SDS011;45933;51.336;12.612;2023-04-01T11:13:30;3.40;;;1.05;;
60060;SDS011;45933;51.336;12.612;2023-04-01T11:16:23;3.80;;;1.10;;
60060;SDS011;45933;51.336;12.612;2023-04-01T11:27:24;1.67;;;0.70;;
60060;SDS011;45933;51.336;12.612;2023-04-01T11:44:04;2.50;;;0.70;;
60060;SDS011;45933;51.336;12.612;2023-04-01T11:46:46;2.67;;;0.77;;
60060;SDS011;45933;51.336;12.612;2023-04-01T11:49:29;1.95;;;0.80;;
60060;SDS011;45933;51.336;12.612;2023-04-01T11:52:25;1.33;;;0.75;;
60060;SDS011;45933;51.336;12.612;2023-04-01T11:55:03;1.85;;;0.90;;
60060;SDS011;45933;51.336;12.612;2023-04-01T11:57:35;1.15;;;0.63;;
60060;SDS011;45933;51.336;12.612;2023-04-01T12:00:16;0.90;;;0.60;;
60060;SDS011;45933;51.336;12.612;2023-04-01T12:03:14;1.35;;;0.60;;
60060;SDS011;45933;51.336;12.612;2023-04-01T12:05:54;1.60;;;0.98;;
60060;SDS011;45933;51.336;12.612;2023-04-01T12:08:46;7.20;;;3.40;;
60060;SDS011;45933;51.336;12.612;2023-04-01T12:14:27;2.03;;;0.60;;
60060;SDS011;45933;51.336;12.612;2023-04-01T12:20:01;3.33;;;1.20;;
60060;SDS011;45933;51.336;12.612;2023-04-01T12:26:00;1.30;;;0.55;;
60060;SDS011;45933;51.336;12.612;2023-04-01T12:28:44;1.05;;;0.60;;
60060;SDS011;45933;51.336;12.612;2023-04-01T12:57:02;5.40;;;4.90;;
60060;SDS011;45933;51.336;12.612;2023-04-01T13:16:57;2.10;;;0.75;;
60060;SDS011;45933;51.336;12.612;2023-04-01T13:19:40;2.65;;;0.90;;
60060;SDS011;45933;51.336;12.612;2023-04-01T13:25:36;2.28;;;0.80;;
60060;SDS011;45933;51.336;12.612;2023-04-01T13:36:36;1.95;;;1.58;;
60060;SDS011;45933;51.336;12.612;2023-04-01T13:42:06;2.50;;;1.10;;
60060;SDS011;45933;51.336;12.612;2023-04-01T14:19:53;1.42;;;1.23;;
60060;SDS011;45933;51.336;12.612;2023-04-01T14:22:29;1.38;;;0.80;;
60060;SDS011;45933;51.336;12.612;2023-04-01T14:31:00;1.75;;;1.17;;
60060;SDS011;45933;51.336;12.612;2023-04-01T14:36:43;3.35;;;1.73;;
60060;SDS011;45933;51.336;12.612;2023-04-01T14:39:36;3.70;;;3.30;;
60060;SDS011;45933;51.336;12.612;2023-04-01T14:42:35;1.60;;;1.50;;
60060;SDS011;45933;51.336;12.612;2023-04-01T14:45:19;2.80;;;2.20;;
60060;SDS011;45933;51.336;12.612;2023-04-01T14:50:40;1.25;;;0.70;;
60060;SDS011;45933;51.336;12.612;2023-04-01T14:55:52;3.08;;;0.80;;
60060;SDS011;45933;51.336;12.612;2023-04-01T14:58:23;1.15;;;0.80;;
60060;SDS011;45933;51.336;12.612;2023-04-01T15:04:01;1.15;;;0.50;;
60060;SDS011;45933;51.336;12.612;2023-04-01T15:26:52;3.23;;;2.67;;
60060;SDS011;45933;51.336;12.612;2023-04-01T15:29:40;5.45;;;4.32;;
60060;SDS011;45933;51.336;12.612;2023-04-01T15:37:55;2.83;;;1.40;;
60060;SDS011;45933;51.336;12.612;2023-04-01T15:40:31;1.52;;;1.20;;
60060;SDS011;45933;51.336;12.612;2023-04-01T15:46:26;2.38;;;1.52;;
60060;SDS011;45933;51.336;12.612;2023-04-01T15:49:20;1.50;;;1.15;;
60060;SDS011;45933;51.336;12.612;2023-04-01T15:51:54;3.78;;;1.98;;
60060;SDS011;45933;51.336;12.612;2023-04-01T15:57:24;2.80;;;1.85;;
60060;SDS011;45933;51.336;12.612;2023-04-01T16:17:20;2.83;;;0.93;;
60060;SDS011;45933;51.336;12.612;2023-04-01T16:22:53;1.63;;;0.40;;
60060;SDS011;45933;51.336;12.612;2023-04-01T16:30:50;1.60;;;0.38;;
60060;SDS011;45933;51.336;12.612;2023-04-01T16:33:46;1.30;;;0.60;;
60060;SDS011;45933;51.336;12.612;2023-04-01T16:36:21;1.23;;;0.60;;
60060;SDS011;45933;51.336;12.612;2023-04-01T16:39:06;0.30;;;0.30;;
60060;SDS011;45933;51.336;12.612;2023-04-01T16:44:44;0.53;;;0.50;;
60060;SDS011;45933;51.336;12.612;2023-04-01T16:47:30;0.90;;;0.50;;
60060;SDS011;45933;51.336;12.612;2023-04-01T16:58:26;2.67;;;0.90;;
60060;SDS011;45933;51.336;12.612;2023-04-01T17:01:00;3.43;;;1.97;;
60060;SDS011;45933;51.336;12.612;2023-04-01T17:03:33;3.40;;;1.77;;
60060;SDS011;45933;51.336;12.612;2023-04-01T17:11:44;0.98;;;0.98;;
60060;SDS011;45933;51.336;12.612;2023-04-01T17:14:28;1.20;;;0.90;;
60060;SDS011;45933;51.336;12.612;2023-04-01T17:17:12;0.40;;;0.40;;
60060;SDS011;45933;51.336;12.612;2023-04-01T17:20:02;0.70;;;0.60;;
60060;SDS011;45933;51.336;12.612;2023-04-01T17:23:00;1.10;;;0.80;;
60060;SDS011;45933;51.336;12.612;2023-04-01T17:25:44;1.27;;;0.80;;
60060;SDS011;45933;51.336;12.612;2023-04-01T17:31:02;0.83;;;0.80;;
60060;SDS011;45933;51.336;12.612;2023-04-01T17:36:45;3.00;;;2.70;;
60060;SDS011;45933;51.336;12.612;2023-04-01T17:39:22;3.00;;;2.20;;
60060;SDS011;45933;51.336;12.612;2023-04-01T17:42:22;2.83;;;1.80;;
60060;SDS011;45933;51.336;12.612;2023-04-01T17:45:24;1.87;;;1.63;;
60060;SDS011;45933;51.336;12.612;2023-04-01T17:47:58;3.27;;;2.03;;
60060;SDS011;45933;51.336;12.612;2023-04-01T17:50:43;2.23;;;1.73;;
60060;SDS011;45933;51.336;12.612;2023-04-01T17:53:24;2.20;;;2.00;;
60060;SDS011;45933;51.336;12.612;2023-04-01T18:04:54;4.07;;;3.07;;
60060;SDS011;45933;51.336;12.612;2023-04-01T18:18:57;1.60;;;1.50;;
60060;SDS011;45933;51.336;12.612;2023-04-01T18:21:36;4.03;;;1.80;;
60060;SDS011;45933;51.336;12.612;2023-04-01T18:27:01;2.40;;;2.20;;
60060;SDS011;45933;51.336;12.612;2023-04-01T18:29:44;3.53;;;2.87;;
60060;SDS011;45933;51.336;12.612;2023-04-01T18:32:36;5.30;;;4.43;;
60060;SDS011;45933;51.336;12.612;2023-04-01T18:35:14;4.60;;;3.83;;
60060;SDS011;45933;51.336;12.612;2023-04-01T18:37:44;4.47;;;3.40;;
60060;SDS011;45933;51.336;12.612;2023-04-01T18:40:20;4.80;;;4.27;;
60060;SDS011;45933;51.336;12.612;2023-04-01T18:45:43;6.17;;;4.30;;
60060;SDS011;45933;51.336;12.612;2023-04-01T18:48:30;5.67;;;3.70;;
60060;SDS011;45933;51.336;12.612;2023-04-01T18:51:14;3.73;;;3.17;;
60060;SDS011;45933;51.336;12.612;2023-04-01T18:53:58;3.57;;;2.83;;
60060;SDS011;45933;51.336;12.612;2023-04-01T18:56:29;4.47;;;2.73;;
60060;SDS011;45933;51.336;12.612;2023-04-01T18:59:05;3.20;;;2.00;;
60060;SDS011;45933;51.336;12.612;2023-04-01T19:01:47;1.87;;;1.67;;
60060;SDS011;45933;51.336;12.612;2023-04-01T19:04:30;3.23;;;2.00;;
60060;SDS011;45933;51.336;12.612;2023-04-01T19:13:06;4.07;;;3.17;;
60060;SDS011;45933;51.336;12.612;2023-04-01T19:15:41;3.30;;;2.20;;
60060;SDS011;45933;51.336;12.612;2023-04-01T19:18:22;2.87;;;2.00;;
60060;SDS011;45933;51.336;12.612;2023-04-01T19:20:52;2.50;;;2.10;;
60060;SDS011;45933;51.336;12.612;2023-04-01T19:26:29;3.40;;;1.80;;
60060;SDS011;45933;51.336;12.612;2023-04-01T19:34:25;3.00;;;1.43;;
60060;SDS011;45933;51.336;12.612;2023-04-01T19:37:02;1.90;;;1.60;;
60060;SDS011;45933;51.336;12.612;2023-04-01T19:47:57;2.77;;;1.90;;
60060;SDS011;45933;51.336;12.612;2023-04-01T19:51:06;2.70;;;2.00;;
60060;SDS011;45933;51.336;12.612;2023-04-01T19:58:45;2.20;;;2.00;;
60060;SDS011;45933;51.336;12.612;2023-04-01T20:01:24;2.37;;;2.17;;
60060;SDS011;45933;51.336;12.612;2023-04-01T20:04:03;3.40;;;3.10;;
60060;SDS011;45933;51.336;12.612;2023-04-01T20:12:36;3.10;;;2.37;;
60060;SDS011;45933;51.336;12.612;2023-04-01T20:15:22;2.43;;;2.20;;
60060;SDS011;45933;51.336;12.612;2023-04-01T20:17:50;2.50;;;2.30;;
60060;SDS011;45933;51.336;12.612;2023-04-01T20:20:19;2.40;;;2.20;;
60060;SDS011;45933;51.336;12.612;2023-04-01T20:23:06;2.50;;;2.30;;
60060;SDS011;45933;51.336;12.612;2023-04-01T20:25:51;3.43;;;2.70;;
60060;SDS011;45933;51.336;12.612;2023-04-01T20:35:45;4.07;;;2.83;;
60060;SDS011;45933;51.336;12.612;2023-04-01T20:41:09;3.30;;;3.00;;
60060;SDS011;45933;51.336;12.612;2023-04-01T20:46:30;3.27;;;2.90;;
60060;SDS011;45933;51.336;12.612;2023-04-01T20:49:10;3.03;;;2.73;;
60060;SDS011;45933;51.336;12.612;2023-04-01T20:52:32;3.63;;;3.10;;
60060;SDS011;45933;51.336;12.612;2023-04-01T20:54:44;3.70;;;2.80;;
60060;SDS011;45933;51.336;12.612;2023-04-01T20:57:42;3.43;;;2.80;;
60060;SDS011;45933;51.336;12.612;2023-04-01T21:11:16;3.77;;;3.10;;
60060;SDS011;45933;51.336;12.612;2023-04-01T21:24:52;3.80;;;3.50;;
60060;SDS011;45933;51.336;12.612;2023-04-01T21:27:39;5.60;;;4.90;;
60060;SDS011;45933;51.336;12.612;2023-04-01T21:30:32;6.10;;;5.50;;
60060;SDS011;45933;51.336;12.612;2023-04-01T21:33:15;5.47;;;4.97;;
60060;SDS011;45933;51.336;12.612;2023-04-01T21:38:42;5.17;;;4.67;;
60060;SDS011;45933;51.336;12.612;2023-04-01T21:44:06;4.80;;;4.30;;
60060;SDS011;45933;51.336;12.612;2023-04-01T21:47:02;4.20;;;3.80;;
60060;SDS011;45933;51.336;12.612;2023-04-01T21:49:49;5.07;;;4.33;;
60060;SDS011;45933;51.336;12.612;2023-04-01T21:52:42;4.57;;;4.07;;
60060;SDS011;45933;51.336;12.612;2023-04-01T21:58:40;5.43;;;4.30;;
60060;SDS011;45933;51.336;12.612;2023-04-01T22:04:18;3.83;;;2.83;;
60060;SDS011;45933;51.336;12.612;2023-04-01T22:09:35;3.77;;;3.23;;
60060;SDS011;45933;51.336;12.612;2023-04-01T22:12:09;3.60;;;3.17;;
60060;SDS011;45933;51.336;12.612;2023-04-01T22:20:44;4.70;;;3.53;;
60060;SDS011;45933;51.336;12.612;2023-04-01T22:26:09;4.77;;;4.10;;
60060;SDS011;45933;51.336;12.612;2023-04-01T22:31:42;4.80;;;4.30;;
60060;SDS011;45933;51.336;12.612;2023-04-01T22:37:16;4.20;;;3.80;;
60060;SDS011;45933;51.336;12.612;2023-04-01T22:39:54;4.97;;;4.13;;
60060;SDS011;45933;51.336;12.612;2023-04-01T22:48:26;4.00;;;3.60;;
60060;SDS011;45933;51.336;12.612;2023-04-01T22:53:42;4.03;;;3.60;;
60060;SDS011;45933;51.336;12.612;2023-04-01T22:56:18;3.90;;;3.50;;
60060;SDS011;45933;51.336;12.612;2023-04-01T22:58:51;5.07;;;4.07;;
60060;SDS011;45933;51.336;12.612;2023-04-01T23:01:26;4.43;;;3.60;;
60060;SDS011;45933;51.336;12.612;2023-04-01T23:03:57;3.90;;;3.17;;
60060;SDS011;45933;51.336;12.612;2023-04-01T23:06:26;3.10;;;2.80;;
60060;SDS011;45933;51.336;12.612;2023-04-01T23:09:08;4.67;;;3.27;;
60060;SDS011;45933;51.336;12.612;2023-04-01T23:11:57;2.87;;;2.67;;
60060;SDS011;45933;51.336;12.612;2023-04-01T23:14:37;3.10;;;2.73;;
60060;SDS011;45933;51.336;12.612;2023-04-01T23:17:30;3.50;;;3.20;;
60060;SDS011;45933;51.336;12.612;2023-04-01T23:20:07;4.13;;;2.53;;
60060;SDS011;45933;51.336;12.612;2023-04-01T23:27:44;3.27;;;2.97;;
60060;SDS011;45933;51.336;12.612;2023-04-01T23:35:50;3.20;;;2.57;;
60060;SDS011;45933;51.336;12.612;2023-04-01T23:38:18;3.70;;;2.60;;
60060;SDS011;45933;51.336;12.612;2023-04-01T23:40:49;3.37;;;2.97;;
60060;SDS011;45933;51.336;12.612;2023-04-01T23:43:21;3.10;;;2.80;;
60060;SDS011;45933;51.336;12.612;2023-04-01T23:45:50;3.13;;;2.30;;
60060;SDS011;45933;51.336;12.612;2023-04-01T23:48:16;3.33;;;2.63;;
60060;SDS011;45933;51.336;12.612;2023-04-01T23:50:48;2.80;;;2.53;;
60060;SDS011;45933;51.336;12.612;2023-04-01T23:53:17;3.00;;;2.70;;
60060;SDS011;45933;51.336;12.612;2023-04-01T23:55:45;3.47;;;2.80;;
60060;SDS011;45933;51.336;12.612;2023-04-01T23:58:13;3.00;;;2.63;;
